Time;durP1;ratioP1;P1;durP2;ratioP2;P2;SDS_P1;SDS_P2;PMS_P1;PMS_P2;Temp;Humidity;BMP_temperature;BMP_pressure;BME280_temperature;BME280_humidity;BME280_pressure;Samples;Min_cycle;Max_cycle;Signal;HPM_P1;HPM_P2
2023/04/24 00:02:56;;;;;;;0.98;0.73;;;;;;;10.28;100.00;99159.19;6122591;28;20063;-91
2023/04/24 00:05:59;;;;;;;1.33;1.00;;;;;;;10.25;100.00;99169.81;6103499;29;20438;-91
2023/04/24 00:09:01;;;;;;;0.77;0.68;;;;;;;10.14;100.00;99174.28;6119797;28;20044;-90
2023/04/24 00:12:08;;;;;;;1.17;1.00;;;;;;;10.11;100.00;99177.19;6124891;28;20047;-90
2023/04/24 00:15:11;;;;;;;0.90;0.90;;;;;;;10.04;100.00;99162.44;6115714;28;20082;-90
2023/04/24 00:18:13;;;;;;;1.10;0.98;;;;;;;10.00;100.00;99158.50;6105510;28;20144;-90
2023/04/24 00:21:17;;;;;;;1.17;1.08;;;;;;;9.98;100.00;99157.84;6111335;28;20410;-90
2023/04/24 00:24:20;;;;;;;1.13;1.02;;;;;;;9.99;100.00;99170.63;6107293;28;20047;-90
2023/04/24 00:27:23;;;;;;;4.43;1.05;;;;;;;9.99;100.00;99165.47;6133043;28;20043;-90
2023/04/24 00:30:25;;;;;;;0.90;0.90;;;;;;;10.12;100.00;99165.88;6113616;28;20490;-91
2023/04/24 00:33:27;;;;;;;1.55;0.80;;;;;;;10.14;100.00;99153.59;6134273;28;20557;-91
2023/04/24 00:36:30;;;;;;;1.10;0.90;;;;;;;10.02;100.00;99159.97;6106312;28;20532;-91
2023/04/24 00:39:33;;;;;;;0.88;0.80;;;;;;;9.99;100.00;99162.06;6132672;28;20086;-91
2023/04/24 00:42:35;;;;;;;1.30;1.13;;;;;;;9.93;100.00;99160.88;6107284;28;20099;-90
2023/04/24 00:45:38;;;;;;;1.17;1.00;;;;;;;9.92;100.00;99160.06;6117688;28;20047;-91
2023/04/24 00:48:40;;;;;;;1.73;1.05;;;;;;;9.87;100.00;99166.66;6134451;28;20042;-91
2023/04/24 00:51:45;;;;;;;1.13;1.02;;;;;;;9.82;100.00;99169.69;6113014;28;20075;-91
2023/04/24 00:54:46;;;;;;;1.38;0.90;;;;;;;9.69;100.00;99172.66;6106210;28;20059;-90
2023/04/24 00:57:49;;;;;;;1.92;1.13;;;;;;;9.67;100.00;99178.94;6117312;28;20048;-90
2023/04/24 01:00:53;;;;;;;1.20;1.10;;;;;;;9.68;100.00;99178.78;6101877;28;20039;-92
2023/04/24 01:03:55;;;;;;;1.08;0.98;;;;;;;9.67;100.00;99186.69;6113685;29;20568;-91
2023/04/24 01:06:57;;;;;;;1.48;0.90;;;;;;;9.61;100.00;99180.31;6102499;28;20073;-90
2023/04/24 01:09:59;;;;;;;1.75;1.02;;;;;;;9.70;100.00;99170.88;6131978;28;20050;-90
2023/04/24 01:13:00;;;;;;;1.70;1.00;;;;;;;9.67;100.00;99160.84;6103857;28;20044;-91
2023/04/24 01:16:03;;;;;;;3.38;1.00;;;;;;;9.53;100.00;99164.75;6112275;28;20138;-91
2023/04/24 01:19:06;;;;;;;0.80;0.80;;;;;;;9.42;100.00;99162.41;6103863;28;20047;-90
2023/04/24 01:22:16;;;;;;;1.00;0.90;;;;;;;9.38;100.00;99161.06;6121523;28;20101;-91
2023/04/24 01:25:18;;;;;;;1.13;1.02;;;;;;;9.35;100.00;99151.84;6114322;28;20373;-90
2023/04/24 01:28:20;;;;;;;1.75;0.80;;;;;;;9.31;100.00;99147.13;6128564;28;20411;-91
2023/04/24 01:31:23;;;;;;;0.80;0.80;;;;;;;9.23;100.00;99151.25;6099643;28;20063;-90
2023/04/24 01:34:25;;;;;;;1.02;0.90;;;;;;;9.19;100.00;99156.84;6112310;28;20139;-91
2023/04/24 01:37:27;;;;;;;1.20;1.00;;;;;;;9.12;100.00;99155.81;6103166;28;20051;-90
2023/04/24 01:40:29;;;;;;;1.60;1.08;;;;;;;9.03;100.00;99160.88;6112747;28;20171;-91
2023/04/24 01:43:32;;;;;;;1.60;0.95;;;;;;;8.94;100.00;99161.75;6112068;28;20070;-91
2023/04/24 01:46:35;;;;;;;0.77;0.73;;;;;;;8.83;100.00;99155.03;6105713;28;20059;-91
2023/04/24 01:49:39;;;;;;;0.88;0.88;;;;;;;8.71;100.00;99160.53;6106867;28;20060;-91
2023/04/24 01:52:41;;;;;;;1.20;1.08;;;;;;;8.65;100.00;99153.38;6118220;28;20313;-91
2023/04/24 01:55:44;;;;;;;0.80;0.80;;;;;;;8.61;100.00;99155.41;6124744;28;20572;-91
2023/04/24 01:58:49;;;;;;;1.17;0.80;;;;;;;8.56;100.00;99155.00;6118822;28;20394;-91
2023/04/24 02:01:50;;;;;;;0.88;0.88;;;;;;;8.53;100.00;99156.13;6121781;28;20086;-91
2023/04/24 02:04:54;;;;;;;1.30;1.00;;;;;;;8.56;100.00;99155.00;6107564;28;20078;-91
2023/04/24 02:07:56;;;;;;;0.93;0.88;;;;;;;8.57;100.00;99159.22;6103615;28;20040;-90
2023/04/24 02:10:58;;;;;;;1.05;0.95;;;;;;;8.57;100.00;99154.88;6108661;28;20540;-90
2023/04/24 02:13:59;;;;;;;1.10;0.95;;;;;;;8.57;100.00;99152.31;6124028;28;20047;-91
2023/04/24 02:17:01;;;;;;;0.85;0.85;;;;;;;8.60;100.00;99152.00;6107882;28;20517;-91
2023/04/24 02:20:05;;;;;;;2.53;0.90;;;;;;;8.58;100.00;99143.59;6106170;28;20061;-91
2023/04/24 02:23:07;;;;;;;0.80;0.80;;;;;;;8.55;100.00;99145.66;6119171;28;20050;-90
2023/04/24 02:26:09;;;;;;;1.00;0.90;;;;;;;8.53;100.00;99145.00;6108637;28;20043;-91
2023/04/24 02:29:11;;;;;;;2.03;1.10;;;;;;;8.49;100.00;99148.78;6131734;28;20764;-91
2023/04/24 02:32:15;;;;;;;0.90;0.90;;;;;;;8.44;100.00;99146.63;6139178;28;20466;-92
2023/04/24 02:35:17;;;;;;;1.63;1.10;;;;;;;8.38;100.00;99148.00;6129258;28;20048;-91
2023/04/24 02:38:19;;;;;;;1.02;0.90;;;;;;;8.36;100.00;99146.50;6121822;28;20131;-91
2023/04/24 02:41:21;;;;;;;1.17;0.80;;;;;;;8.31;100.00;99146.94;6107561;28;20051;-91
2023/04/24 02:44:23;;;;;;;1.02;0.95;;;;;;;8.28;100.00;99157.53;6100075;28;20074;-92
2023/04/24 02:47:24;;;;;;;0.85;0.80;;;;;;;8.24;100.00;99153.59;6106841;29;20055;-91
2023/04/24 02:50:26;;;;;;;0.80;0.80;;;;;;;8.23;100.00;99154.56;6117610;28;20074;-89
2023/04/24 02:53:30;;;;;;;0.90;0.90;;;;;;;8.21;100.00;99153.88;6114325;28;20055;-91
2023/04/24 02:56:32;;;;;;;0.70;0.70;;;;;;;8.22;100.00;99150.34;6105204;28;20039;-92
2023/04/24 02:59:35;;;;;;;1.58;0.90;;;;;;;8.14;100.00;99153.63;6099941;28;20059;-91
2023/04/24 03:02:37;;;;;;;1.30;0.98;;;;;;;8.13;100.00;99148.63;6116731;28;20599;-91
2023/04/24 03:05:39;;;;;;;0.95;0.70;;;;;;;8.06;100.00;99155.28;6094848;28;20544;-91
2023/04/24 03:08:42;;;;;;;1.85;0.80;;;;;;;8.10;100.00;99138.56;6132612;28;20518;-91
2023/04/24 03:11:45;;;;;;;4.75;0.85;;;;;;;8.22;100.00;99139.22;6132590;28;20063;-91
2023/04/24 03:14:47;;;;;;;1.55;0.95;;;;;;;8.21;100.00;99130.69;6125788;28;20054;-91
2023/04/24 03:17:48;;;;;;;0.60;0.60;;;;;;;8.24;100.00;99130.41;6098348;28;20051;-91
2023/04/24 03:20:50;;;;;;;1.17;1.02;;;;;;;8.27;100.00;99127.53;6141809;28;20039;-92
2023/04/24 03:23:52;;;;;;;0.80;0.80;;;;;;;8.31;100.00;99128.88;6114777;28;20253;-92
2023/04/24 03:26:55;;;;;;;2.55;1.05;;;;;;;8.33;100.00;99121.81;6103027;28;20039;-92
2023/04/24 03:30:20;;;;;;;3.55;1.00;;;;;;;8.30;100.00;99121.31;6097017;28;20281;-91
2023/04/24 03:33:28;;;;;;;1.40;0.95;;;;;;;8.24;100.00;99117.50;6106996;28;20538;-92
2023/04/24 03:36:35;;;;;;;1.50;0.95;;;;;;;8.16;100.00;99128.53;6124028;28;20051;-92
2023/04/24 03:39:39;;;;;;;1.20;0.85;;;;;;;8.11;100.00;99122.16;6107833;28;20053;-92
2023/04/24 03:42:42;;;;;;;3.50;0.90;;;;;;;8.06;100.00;99126.94;6105513;28;20047;-91
2023/04/24 03:45:44;;;;;;;1.95;0.93;;;;;;;7.99;100.00;99119.75;6109252;29;20102;-91
2023/04/24 03:48:47;;;;;;;0.88;0.88;;;;;;;7.91;100.00;99122.22;6111191;29;20051;-92
2023/04/24 03:51:55;;;;;;;0.82;0.80;;;;;;;7.97;100.00;99111.38;6098913;29;20067;-92
2023/04/24 03:55:00;;;;;;;1.02;0.90;;;;;;;7.97;100.00;99107.94;6104863;29;20595;-92
2023/04/24 03:58:06;;;;;;;0.90;0.90;;;;;;;8.02;100.00;99105.78;6106182;29;20059;-92
2023/04/24 04:01:08;;;;;;;1.25;1.15;;;;;;;8.03;100.00;99109.19;6096826;29;20044;-92
2023/04/24 04:04:15;;;;;;;3.42;0.93;;;;;;;8.04;100.00;99108.22;6114931;28;20172;-92
2023/04/24 04:07:19;;;;;;;2.15;1.15;;;;;;;8.02;100.00;99108.34;6112107;28;20062;-92
2023/04/24 04:10:21;;;;;;;3.05;0.85;;;;;;;8.04;100.00;99115.94;6110344;28;20054;-92
2023/04/24 04:13:23;;;;;;;1.20;0.90;;;;;;;8.05;100.00;99123.56;6136724;28;20040;-92
2023/04/24 04:16:25;;;;;;;2.20;0.73;;;;;;;8.07;100.00;99118.25;6125410;28;20459;-93
2023/04/24 04:19:32;;;;;;;0.80;0.70;;;;;;;8.12;100.00;99113.47;6110899;29;20047;-93
2023/04/24 04:22:35;;;;;;;1.67;0.90;;;;;;;8.16;100.00;99118.22;6110840;29;20060;-93
2023/04/24 04:25:38;;;;;;;1.08;0.90;;;;;;;8.19;100.00;99112.78;6115003;28;20058;-92
2023/04/24 04:28:41;;;;;;;0.70;0.70;;;;;;;8.21;100.00;99107.47;6129538;28;20122;-93
2023/04/24 04:31:43;;;;;;;0.88;0.70;;;;;;;8.24;100.00;99114.94;6097561;28;20051;-93
2023/04/24 04:34:49;;;;;;;0.77;0.70;;;;;;;8.24;100.00;99107.19;6116395;28;20039;-93
2023/04/24 04:37:51;;;;;;;1.10;0.90;;;;;;;8.23;100.00;99110.75;6087029;28;20047;-92
2023/04/24 04:41:04;;;;;;;1.42;0.95;;;;;;;8.22;100.00;99121.97;6104890;28;20537;-93
2023/04/24 04:44:08;;;;;;;2.88;0.70;;;;;;;8.22;100.00;99124.56;6106435;28;20051;-92
2023/04/24 04:47:11;;;;;;;1.00;0.70;;;;;;;8.25;100.00;99126.03;6104021;28;20102;-92
2023/04/24 04:50:14;;;;;;;3.03;0.80;;;;;;;8.28;100.00;99118.06;6091099;29;20060;-93
2023/04/24 04:53:15;;;;;;;2.75;0.90;;;;;;;8.30;100.00;99129.84;6105147;28;20834;-93
2023/04/24 04:56:18;;;;;;;1.90;1.00;;;;;;;8.36;100.00;99129.28;6106289;28;20618;-93
2023/04/24 04:59:20;;;;;;;2.35;0.90;;;;;;;8.46;100.00;99131.03;6123964;28;20054;-93
2023/04/24 05:02:26;;;;;;;1.48;0.70;;;;;;;8.58;100.00;99141.03;6110553;28;20047;-93
2023/04/24 05:05:28;;;;;;;1.27;0.75;;;;;;;8.72;100.00;99133.75;6108459;28;20267;-92
2023/04/24 05:08:30;;;;;;;1.23;0.90;;;;;;;8.87;100.00;99128.91;6101613;28;20048;-92
2023/04/24 05:11:33;;;;;;;1.02;0.82;;;;;;;9.09;100.00;99128.50;6109461;28;20417;-92
2023/04/24 05:14:36;;;;;;;1.02;0.90;;;;;;;9.34;100.00;99131.31;6106202;28;20773;-92
2023/04/24 05:17:39;;;;;;;1.30;0.80;;;;;;;9.51;100.00;99120.19;6105730;28;20116;-92
2023/04/24 05:20:43;;;;;;;1.48;0.80;;;;;;;9.73;100.00;99123.25;6125498;28;20091;-93
2023/04/24 05:23:45;;;;;;;2.22;0.80;;;;;;;10.00;100.00;99119.72;6113691;28;20165;-93
2023/04/24 05:26:52;;;;;;;1.38;0.90;;;;;;;10.25;100.00;99125.84;6115274;28;20090;-92
2023/04/24 05:29:59;;;;;;;1.48;1.08;;;;;;;10.48;100.00;99128.75;6117011;28;20497;-93
2023/04/24 05:33:01;;;;;;;1.05;0.80;;;;;;;10.69;100.00;99136.94;6102294;28;20044;-93
2023/04/24 05:36:06;;;;;;;0.77;0.77;;;;;;;10.84;100.00;99150.09;6101077;28;20410;-93
2023/04/24 05:39:08;;;;;;;1.20;1.00;;;;;;;10.86;100.00;99152.53;6086991;28;20082;-93
2023/04/24 05:42:10;;;;;;;1.20;1.08;;;;;;;10.79;100.00;99147.16;6130145;28;20130;-94
2023/04/24 05:45:16;;;;;;;1.10;1.00;;;;;;;10.73;100.00;99145.19;6111852;28;20042;-93
2023/04/24 05:48:18;;;;;;;1.20;0.98;;;;;;;10.71;100.00;99136.78;6100246;28;20054;-93
2023/04/24 05:51:20;;;;;;;2.55;1.50;;;;;;;10.75;100.00;99136.28;6100494;28;20208;-93
2023/04/24 05:54:22;;;;;;;1.52;1.42;;;;;;;10.86;100.00;99148.16;6112620;28;20371;-93
2023/04/24 05:57:25;;;;;;;1.70;1.60;;;;;;;10.81;100.00;99149.56;6109885;28;20091;-93
2023/04/24 06:00:33;;;;;;;2.22;1.33;;;;;;;10.78;100.00;99141.16;6111338;28;20565;-93
2023/04/24 06:03:41;;;;;;;0.90;0.90;;;;;;;10.71;100.00;99147.13;6100919;28;20058;-92
2023/04/24 06:06:43;;;;;;;1.60;1.20;;;;;;;10.57;100.00;99157.09;6085522;28;20565;-93
2023/04/24 06:09:45;;;;;;;1.52;0.80;;;;;;;10.57;100.00;99151.91;6131226;28;20054;-93
2023/04/24 06:12:47;;;;;;;1.90;0.82;;;;;;;10.49;100.00;99149.28;6107755;28;20069;-93
2023/04/24 06:15:53;;;;;;;2.65;1.10;;;;;;;10.46;100.00;99151.38;6121521;28;20039;-94
2023/04/24 06:19:05;;;;;;;1.55;1.33;;;;;;;10.57;100.00;99151.09;6108080;28;20406;-93
2023/04/24 06:22:07;;;;;;;1.88;1.23;;;;;;;10.54;100.00;99154.00;6124408;28;20044;-93
2023/04/24 06:25:11;;;;;;;2.08;1.48;;;;;;;10.61;100.00;99155.00;6134919;28;20520;-93
2023/04/24 06:28:13;;;;;;;2.03;1.40;;;;;;;10.70;100.00;99154.06;6097042;28;20051;-93
2023/04/24 06:31:15;;;;;;;2.75;1.77;;;;;;;10.88;100.00;99161.75;6102650;28;20055;-93
2023/04/24 06:34:17;;;;;;;2.55;1.90;;;;;;;11.13;100.00;99164.38;6102292;28;20323;-93
2023/04/24 06:37:20;;;;;;;4.50;2.55;;;;;;;11.28;100.00;99160.22;6108364;28;20486;-94
2023/04/24 06:40:22;;;;;;;3.30;2.90;;;;;;;11.40;100.00;99166.72;6124427;28;20649;-94
2023/04/24 06:43:24;;;;;;;3.17;2.55;;;;;;;11.59;100.00;99163.00;6133235;28;20074;-94
2023/04/24 06:46:27;;;;;;;4.57;3.33;;;;;;;11.53;100.00;99165.44;6107408;28;20043;-94
2023/04/24 06:49:29;;;;;;;5.85;3.75;;;;;;;11.51;100.00;99172.56;6098394;28;20195;-94
2023/04/24 06:52:32;;;;;;;5.00;3.75;;;;;;;11.39;100.00;99180.63;6118582;28;20054;-94
2023/04/24 06:55:35;;;;;;;4.63;4.03;;;;;;;11.34;100.00;99182.09;6135456;28;20174;-93
2023/04/24 06:58:38;;;;;;;4.85;4.13;;;;;;;11.54;100.00;99183.41;6105747;28;20047;-94
2023/04/24 07:01:40;;;;;;;5.25;3.95;;;;;;;11.53;100.00;99181.81;6108240;28;20039;-94
2023/04/24 07:04:42;;;;;;;4.65;3.60;;;;;;;11.53;100.00;99188.78;6122715;28;20130;-93
2023/04/24 07:07:44;;;;;;;5.88;4.20;;;;;;;11.59;100.00;99190.72;6123117;28;20051;-94
2023/04/24 07:10:46;;;;;;;4.70;4.07;;;;;;;11.72;100.00;99191.03;6116996;28;20051;-94
2023/04/24 07:13:48;;;;;;;5.57;4.22;;;;;;;11.68;100.00;99176.00;6120830;28;20043;-94
2023/04/24 07:16:50;;;;;;;5.15;3.95;;;;;;;11.77;100.00;99185.38;6125025;28;20137;-94
2023/04/24 07:19:51;;;;;;;5.05;4.13;;;;;;;11.81;100.00;99174.50;6093883;28;20035;-94
2023/04/24 07:22:53;;;;;;;5.22;4.20;;;;;;;11.74;100.00;99183.91;6121214;28;20047;-94
2023/04/24 07:25:56;;;;;;;6.00;4.55;;;;;;;11.58;100.00;99189.09;6108987;28;20047;-95
2023/04/24 07:28:58;;;;;;;5.00;4.18;;;;;;;11.25;100.00;99183.84;6127505;28;20416;-95
2023/04/24 07:31:59;;;;;;;4.72;3.90;;;;;;;11.10;100.00;99186.22;6129919;28;20264;-94
2023/04/24 07:35:05;;;;;;;5.82;4.28;;;;;;;11.26;100.00;99188.06;6104088;28;20043;-93
2023/04/24 07:38:07;;;;;;;6.85;4.88;;;;;;;11.79;100.00;99194.59;6124448;28;20141;-95
2023/04/24 07:41:09;;;;;;;6.47;5.30;;;;;;;11.92;100.00;99201.91;6123890;28;20035;-94
2023/04/24 07:44:11;;;;;;;6.35;5.25;;;;;;;11.69;100.00;99211.28;6117505;28;20415;-95
2023/04/24 07:47:14;;;;;;;7.82;5.40;;;;;;;11.41;100.00;99211.59;6114620;28;20052;-95
2023/04/24 07:50:16;;;;;;;7.53;5.88;;;;;;;11.29;100.00;99200.69;6101561;29;20505;-94
2023/04/24 07:53:18;;;;;;;6.72;5.60;;;;;;;11.43;100.00;99204.47;6104568;28;20050;-94
2023/04/24 07:56:20;;;;;;;8.23;5.82;;;;;;;11.75;100.00;99206.28;6115689;28;20063;-95
2023/04/24 07:59:22;;;;;;;6.82;5.22;;;;;;;11.94;100.00;99214.72;6122750;28;20123;-94
2023/04/24 08:02:26;;;;;;;7.65;5.80;;;;;;;11.95;100.00;99211.16;6100721;28;20375;-95
2023/04/24 08:05:29;;;;;;;8.35;5.38;;;;;;;12.11;100.00;99218.13;6120695;28;20115;-94
2023/04/24 08:08:32;;;;;;;7.00;6.07;;;;;;;12.36;100.00;99226.69;6123034;28;20047;-94
2023/04/24 08:11:34;;;;;;;6.50;5.03;;;;;;;12.70;100.00;99235.06;6120083;28;20040;-94
2023/04/24 08:14:36;;;;;;;8.38;5.72;;;;;;;12.85;100.00;99226.59;6110770;28;20130;-94
2023/04/24 08:17:37;;;;;;;8.00;5.93;;;;;;;12.96;100.00;99246.97;6127677;28;20050;-95
2023/04/24 08:20:39;;;;;;;8.40;5.95;;;;;;;12.88;100.00;99239.22;6108313;28;20139;-94
2023/04/24 08:23:42;;;;;;;8.02;5.63;;;;;;;13.00;100.00;99248.28;6108741;28;20051;-95
2023/04/24 08:26:44;;;;;;;7.03;5.55;;;;;;;13.14;100.00;99247.56;6107355;28;20052;-94
2023/04/24 08:29:46;;;;;;;8.30;5.80;;;;;;;13.16;100.00;99250.00;6126641;28;20055;-94
2023/04/24 08:32:48;;;;;;;6.07;5.20;;;;;;;13.02;100.00;99242.91;6120085;28;20070;-93
2023/04/24 08:35:50;;;;;;;6.35;5.25;;;;;;;13.01;100.00;99246.47;6141428;28;20050;-94
2023/04/24 08:38:53;;;;;;;7.93;4.88;;;;;;;13.03;100.00;99247.13;6128093;28;20058;-94
2023/04/24 08:41:56;;;;;;;5.97;4.85;;;;;;;12.67;100.00;99245.78;6089485;28;20047;-94
2023/04/24 08:44:58;;;;;;;6.90;4.55;;;;;;;12.39;100.00;99236.75;6102925;28;20058;-94
2023/04/24 08:48:00;;;;;;;6.60;4.43;;;;;;;12.16;100.00;99245.22;6119211;28;20055;-93
2023/04/24 08:51:05;;;;;;;5.25;3.40;;;;;;;12.31;100.00;99247.16;6120965;28;20591;-93
2023/04/24 08:54:07;;;;;;;5.10;3.30;;;;;;;12.45;100.00;99247.28;6121543;28;20043;-94
2023/04/24 08:57:11;;;;;;;3.38;2.80;;;;;;;12.62;100.00;99245.47;6127725;28;20509;-94
2023/04/24 09:00:14;;;;;;;3.28;2.75;;;;;;;12.80;100.00;99262.63;6131828;28;20054;-93
2023/04/24 09:03:16;;;;;;;2.95;2.50;;;;;;;12.91;100.00;99238.88;6129020;28;20047;-96
2023/04/24 09:06:21;;;;;;;3.55;2.58;;;;;;;13.11;100.00;99240.09;6105354;28;20047;-96
2023/04/24 09:09:25;;;;;;;3.40;2.75;;;;;;;13.28;100.00;99251.25;6116150;28;20035;-95
2023/04/24 09:12:27;;;;;;;4.40;2.90;;;;;;;13.58;100.00;99241.03;6132207;28;20051;-95
2023/04/24 09:15:29;;;;;;;4.80;2.90;;;;;;;13.56;100.00;99245.59;6102180;28;20512;-96
2023/04/24 09:18:32;;;;;;;3.05;2.75;;;;;;;13.62;100.00;99252.72;6130380;28;20054;-96
2023/04/24 09:21:35;;;;;;;3.72;3.35;;;;;;;13.44;100.00;99258.19;6113723;28;20122;-95
2023/04/24 09:24:38;;;;;;;4.88;3.38;;;;;;;13.26;100.00;99254.97;6101905;28;20044;-96
2023/04/24 09:27:46;;;;;;;4.82;3.22;;;;;;;13.11;100.00;99254.88;6134003;28;20094;-96
2023/04/24 09:31:02;;;;;;;3.38;3.08;;;;;;;13.04;100.00;99254.78;6110481;28;20050;-96
2023/04/24 09:34:05;;;;;;;4.13;3.13;;;;;;;13.12;100.00;99246.94;6121232;28;20039;-96
2023/04/24 09:37:09;;;;;;;4.55;3.33;;;;;;;13.32;100.00;99246.56;6129882;28;20043;-96
2023/04/24 09:40:17;;;;;;;3.85;3.10;;;;;;;13.78;100.00;99241.38;6120603;28;20499;-96
2023/04/24 09:43:19;;;;;;;4.65;3.30;;;;;;;14.49;100.00;99243.72;6142997;28;20377;-96
2023/04/24 09:46:28;;;;;;;4.75;3.60;;;;;;;14.55;100.00;99248.25;6102458;28;20044;-96
2023/04/24 09:49:39;;;;;;;3.85;3.03;;;;;;;14.41;100.00;99255.03;6120088;28;20040;-96
2023/04/24 09:53:08;;;;;;;3.40;3.10;;;;;;;14.13;100.00;99260.78;6103547;28;20441;-96
2023/04/24 09:56:12;;;;;;;3.50;3.20;;;;;;;13.72;100.00;99255.91;6100864;28;20059;-96
2023/04/24 09:59:16;;;;;;;3.70;2.88;;;;;;;13.39;100.00;99254.44;6118706;28;20044;-96
2023/04/24 10:02:19;;;;;;;3.47;3.17;;;;;;;13.33;100.00;99258.56;6110176;28;20445;-96
2023/04/24 10:05:32;;;;;;;4.15;3.30;;;;;;;13.55;100.00;99252.56;6103249;28;20058;-96
2023/04/24 10:08:37;;;;;;;5.13;3.60;;;;;;;13.69;100.00;99256.25;6119603;28;20529;-96
2023/04/24 10:11:45;;;;;;;3.00;2.70;;;;;;;13.64;100.00;99258.56;6135274;28;20106;-94
2023/04/24 10:14:47;;;;;;;6.65;2.47;;;;;;;13.38;100.00;99253.66;6126100;28;20122;-94
2023/04/24 10:17:53;;;;;;;2.78;2.10;;;;;;;13.07;100.00;99254.41;6106221;28;20047;-94
2023/04/24 10:20:56;;;;;;;2.45;2.25;;;;;;;12.73;100.00;99262.47;6112702;28;20046;-94
2023/04/24 10:24:00;;;;;;;2.80;1.90;;;;;;;12.46;100.00;99256.69;6121011;28;20753;-94
2023/04/24 10:27:03;;;;;;;2.45;2.25;;;;;;;12.33;100.00;99250.41;6125880;28;20114;-94
2023/04/24 10:30:06;;;;;;;2.85;2.30;;;;;;;12.34;100.00;99262.38;6102483;28;20123;-94
2023/04/24 10:33:08;;;;;;;6.25;2.40;;;;;;;12.18;100.00;99264.00;6106939;28;20048;-94
2023/04/24 10:36:13;;;;;;;2.05;1.85;;;;;;;12.07;100.00;99253.94;6100647;28;20050;-94
2023/04/24 10:39:16;;;;;;;2.10;1.90;;;;;;;12.05;100.00;99258.50;6110025;28;20047;-93
2023/04/24 10:42:18;;;;;;;2.13;1.90;;;;;;;12.09;100.00;99259.78;6113225;29;20622;-93
2023/04/24 10:45:21;;;;;;;2.08;1.90;;;;;;;12.04;100.00;99268.06;6128014;28;20044;-94
2023/04/24 10:48:26;;;;;;;3.40;2.10;;;;;;;11.99;100.00;99267.72;6117578;28;20062;-94
2023/04/24 10:51:53;;;;;;;2.72;2.42;;;;;;;12.01;100.00;99262.41;6118895;28;20055;-95
2023/04/24 10:54:57;;;;;;;2.28;2.00;;;;;;;12.13;100.00;99265.47;6120190;28;20099;-94
2023/04/24 10:58:05;;;;;;;2.40;2.20;;;;;;;12.23;100.00;99261.75;6105651;28;20055;-94
2023/04/24 11:01:07;;;;;;;2.75;2.05;;;;;;;12.29;100.00;99266.25;6118446;28;20074;-94
2023/04/24 11:04:10;;;;;;;2.20;2.00;;;;;;;12.24;100.00;99275.53;6116754;28;20502;-94
2023/04/24 11:07:12;;;;;;;2.22;1.95;;;;;;;12.14;100.00;99269.69;6125111;28;20071;-94
2023/04/24 11:10:27;;;;;;;2.17;1.90;;;;;;;12.20;100.00;99267.25;6109352;28;20050;-94
2023/04/24 11:14:10;;;;;;;3.00;1.67;;;;;;;12.19;100.00;99265.63;6122413;28;20518;-94
2023/04/24 11:17:37;;;;;;;3.08;1.83;;;;;;;12.73;100.00;99272.06;6017768;29;20088;-95
2023/04/24 11:20:46;;;;;;;1.30;1.20;;;;;;;13.59;100.00;99266.06;6041684;29;20048;-94
2023/04/24 11:23:50;;;;;;;1.75;1.35;;;;;;;14.19;100.00;99274.91;6025633;29;20559;-94
2023/04/24 11:27:05;;;;;;;1.80;1.60;;;;;;;14.29;100.00;99259.84;6044069;29;20041;-94
2023/04/24 11:30:08;;;;;;;2.00;1.40;;;;;;;14.41;100.00;99258.44;6027471;29;20056;-95
2023/04/24 11:33:10;;;;;;;1.58;1.48;;;;;;;14.41;100.00;99244.63;6041333;29;20053;-95
2023/04/24 11:36:12;;;;;;;1.48;1.38;;;;;;;14.30;100.00;99255.44;6042129;29;20139;-93
2023/04/24 11:39:15;;;;;;;1.55;1.15;;;;;;;13.84;100.00;99253.72;6041230;29;20071;-94
2023/04/24 11:42:19;;;;;;;1.27;1.17;;;;;;;13.51;100.00;99258.28;6040647;29;20055;-93
2023/04/24 11:45:24;;;;;;;2.03;1.13;;;;;;;13.84;100.00;99269.31;6044021;29;20173;-92
2023/04/24 11:48:26;;;;;;;0.88;0.88;;;;;;;14.46;100.00;99281.34;6043318;29;20053;-95
2023/04/24 11:51:28;;;;;;;1.13;1.02;;;;;;;14.56;100.00;99268.91;6109344;28;20378;-95
2023/04/24 11:54:47;;;;;;;2.70;1.13;;;;;;;14.03;100.00;99280.22;6115165;28;20087;-95
2023/04/24 11:57:51;;;;;;;1.38;0.90;;;;;;;13.58;100.00;99293.84;6125986;28;20506;-95
2023/04/24 12:01:00;;;;;;;1.67;0.80;;;;;;;13.49;100.00;99294.03;6133002;28;20076;-95
2023/04/24 12:04:02;;;;;;;1.35;0.80;;;;;;;13.40;100.00;99298.47;6137730;28;20047;-95
2023/04/24 12:07:05;;;;;;;0.90;0.80;;;;;;;13.13;100.00;99310.09;6127652;28;20043;-95
2023/04/24 12:10:07;;;;;;;1.65;0.90;;;;;;;12.71;100.00;99306.78;6115283;28;20054;-95
2023/04/24 12:13:11;;;;;;;0.70;0.70;;;;;;;12.65;100.00;99310.03;6113361;28;20056;-95
2023/04/24 12:16:13;;;;;;;1.02;0.82;;;;;;;12.90;100.00;99310.00;6125003;28;20522;-95
2023/04/24 12:19:22;;;;;;;1.02;0.90;;;;;;;13.09;100.00;99332.19;6113962;28;20046;-95
2023/04/24 12:22:24;;;;;;;1.95;1.00;;;;;;;13.15;100.00;99319.34;6130380;28;20138;-96
2023/04/24 12:25:28;;;;;;;1.10;1.00;;;;;;;13.74;100.00;99326.75;6112007;28;20309;-95
2023/04/24 12:28:37;;;;;;;2.10;0.93;;;;;;;14.54;100.00;99322.16;6123175;28;20483;-96
2023/04/24 12:31:39;;;;;;;0.98;0.98;;;;;;;14.64;100.00;99338.34;6128576;28;20530;-96
2023/04/24 12:34:43;;;;;;;1.10;1.00;;;;;;;14.54;100.00;99332.56;6128119;28;20039;-96
2023/04/24 12:37:45;;;;;;;1.02;1.02;;;;;;;14.86;100.00;99334.84;6126921;28;20043;-96
2023/04/24 12:41:02;;;;;;;1.20;1.10;;;;;;;14.71;100.00;99335.81;6129468;28;20616;-96
2023/04/24 12:44:10;;;;;;;1.20;1.10;;;;;;;14.41;100.00;99333.13;6110017;28;20043;-96
2023/04/24 12:47:13;;;;;;;1.35;1.13;;;;;;;13.86;100.00;99337.56;6110666;29;20048;-96
2023/04/24 12:50:15;;;;;;;1.20;1.10;;;;;;;13.19;100.00;99348.41;6122345;28;20035;-96
2023/04/24 12:53:17;;;;;;;1.08;0.98;;;;;;;12.75;100.00;99353.22;6113090;28;20573;-96
2023/04/24 12:56:20;;;;;;;1.58;1.00;;;;;;;12.59;100.00;99362.59;6111443;28;20051;-96
2023/04/24 12:59:22;;;;;;;1.30;1.20;;;;;;;12.18;100.00;99403.31;6109370;28;20187;-96
2023/04/24 13:02:26;;;;;;;0.93;0.93;;;;;;;11.60;100.00;99384.94;6135324;28;20070;-96
2023/04/24 13:05:29;;;;;;;1.30;1.20;;;;;;;11.17;100.00;99401.41;6131634;28;20177;-96
2023/04/24 13:08:32;;;;;;;1.73;1.30;;;;;;;11.01;100.00;99396.13;6117144;28;20040;-96
2023/04/24 13:11:35;;;;;;;1.17;1.10;;;;;;;10.82;100.00;99394.53;6121089;28;20413;-96
2023/04/24 13:14:37;;;;;;;1.77;1.33;;;;;;;11.01;100.00;99388.34;6117645;28;20046;-96
2023/04/24 13:17:39;;;;;;;4.22;2.13;;;;;;;11.26;100.00;99404.84;6119332;28;20044;-96
2023/04/24 13:20:42;;;;;;;1.95;0.70;;;;;;;11.54;100.00;99405.47;6111078;28;20450;-96
2023/04/24 13:23:44;;;;;;;0.77;0.77;;;;;;;11.65;100.00;99420.75;6115163;28;20090;-95
2023/04/24 13:26:46;;;;;;;1.05;0.95;;;;;;;11.74;100.00;99406.84;6132499;28;20039;-96
2023/04/24 13:29:48;;;;;;;1.00;0.90;;;;;;;11.92;100.00;99421.53;6126830;28;20048;-96
2023/04/24 13:32:50;;;;;;;0.85;0.80;;;;;;;11.85;100.00;99429.94;6136279;28;20050;-95
2023/04/24 13:35:52;;;;;;;1.00;0.75;;;;;;;11.27;100.00;99451.31;6129733;28;20043;-94
2023/04/24 13:38:54;;;;;;;0.82;0.82;;;;;;;11.02;100.00;99455.50;6120287;28;20039;-96
2023/04/24 13:41:56;;;;;;;0.35;0.35;;;;;;;10.78;100.00;99469.06;6133378;28;20044;-95
2023/04/24 13:44:58;;;;;;;0.57;0.32;;;;;;;10.19;100.00;99465.25;6120715;28;20509;-92
2023/04/24 13:48:02;;;;;;;0.30;0.30;;;;;;;9.69;100.00;99474.97;6122673;28;20123;-92
2023/04/24 13:51:05;;;;;;;1.38;0.30;;;;;;;9.22;100.00;99474.16;6125453;28;20035;-95
2023/04/24 13:54:07;;;;;;;1.35;0.45;;;;;;;9.16;100.00;99465.16;6095690;28;20058;-96
2023/04/24 13:57:09;;;;;;;0.63;0.60;;;;;;;8.97;100.00;99470.38;6126576;28;20040;-95
2023/04/24 14:00:13;;;;;;;0.77;0.55;;;;;;;8.82;100.00;99481.09;6126530;28;20038;-95
2023/04/24 14:03:15;;;;;;;0.85;0.60;;;;;;;8.87;100.00;99485.88;6123260;28;20031;-95
2023/04/24 14:06:19;;;;;;;1.52;0.82;;;;;;;8.71;100.00;99470.91;6128723;28;20608;-94
2023/04/24 14:09:21;;;;;;;4.28;0.95;;;;;;;8.68;100.00;99476.34;6124693;28;20050;-93
2023/04/24 14:12:23;;;;;;;2.90;0.93;;;;;;;8.62;100.00;99482.88;6132813;28;20179;-93
2023/04/24 14:15:25;;;;;;;1.10;1.00;;;;;;;8.47;100.00;99483.38;6101801;28;20414;-93
2023/04/24 14:18:27;;;;;;;0.85;0.80;;;;;;;8.34;100.00;99488.75;6108740;28;20666;-93
2023/04/24 14:21:28;;;;;;;2.20;1.00;;;;;;;8.21;100.00;99496.72;6131796;28;20572;-94